sensor_id;sensor_type;location;lat;lon;timestamp;pressure;altitude;pressure_sealevel;temperature;humidity
6218;BME280;3142;48.206;11.550;2022-09-12T00:01:17;95965.50;;;15.05;79.68
6218;BME280;3142;48.206;11.550;2022-09-12T00:03:44;95955.78;;;15.06;79.15
6218;BME280;3142;48.206;11.550;2022-09-12T00:06:15;95960.81;;;15.07;79.52
6218;BME280;3142;48.206;11.550;2022-09-12T00:08:42;95962.88;;;15.05;78.94
6218;BME280;3142;48.206;11.550;2022-09-12T00:11:10;95959.00;;;15.08;79.20
6218;BME280;3142;48.206;11.550;2022-09-12T00:13:38;95964.56;;;15.00;79.24
6218;BME280;3142;48.206;11.550;2022-09-12T00:16:06;95950.59;;;14.99;78.73
6218;BME280;3142;48.206;11.550;2022-09-12T00:18:33;95951.63;;;14.98;79.41
6218;BME280;3142;48.206;11.550;2022-09-12T00:21:02;95947.38;;;14.97;79.21
6218;BME280;3142;48.206;11.550;2022-09-12T00:23:31;95951.84;;;14.97;79.05
6218;BME280;3142;48.206;11.550;2022-09-12T00:25:58;95950.88;;;14.91;78.69
6218;BME280;3142;48.206;11.550;2022-09-12T00:28:25;95939.53;;;14.91;78.99
6218;BME280;3142;48.206;11.550;2022-09-12T00:30:51;95938.28;;;14.93;78.69
6218;BME280;3142;48.206;11.550;2022-09-12T00:33:18;95935.47;;;14.95;78.57
6218;BME280;3142;48.206;11.550;2022-09-12T00:35:48;95937.47;;;14.93;78.86
6218;BME280;3142;48.206;11.550;2022-09-12T00:38:17;95940.34;;;14.91;79.04
6218;BME280;3142;48.206;11.550;2022-09-12T00:40:47;95933.91;;;14.87;78.82
6218;BME280;3142;48.206;11.550;2022-09-12T00:43:31;95937.44;;;14.81;79.21
6218;BME280;3142;48.206;11.550;2022-09-12T00:46:01;95931.16;;;14.82;79.00
6218;BME280;3142;48.206;11.550;2022-09-12T00:48:34;95930.34;;;14.81;79.12
6218;BME280;3142;48.206;11.550;2022-09-12T00:51:02;95932.59;;;14.78;78.71
6218;BME280;3142;48.206;11.550;2022-09-12T00:53:28;95928.50;;;14.82;78.46
6218;BME280;3142;48.206;11.550;2022-09-12T00:55:57;95931.94;;;14.82;79.15
6218;BME280;3142;48.206;11.550;2022-09-12T00:58:26;95926.47;;;14.84;78.25
6218;BME280;3142;48.206;11.550;2022-09-12T01:00:53;95924.63;;;14.85;78.84
6218;BME280;3142;48.206;11.550;2022-09-12T01:03:22;95921.78;;;14.86;77.78
6218;BME280;3142;48.206;11.550;2022-09-12T01:05:53;95919.34;;;14.85;77.84
6218;BME280;3142;48.206;11.550;2022-09-12T01:08:26;95914.31;;;14.83;78.85
6218;BME280;3142;48.206;11.550;2022-09-12T01:10:54;95921.41;;;14.82;78.68
6218;BME280;3142;48.206;11.550;2022-09-12T01:13:23;95912.47;;;14.84;78.36
6218;BME280;3142;48.206;11.550;2022-09-12T01:15:49;95909.84;;;14.84;78.63
6218;BME280;3142;48.206;11.550;2022-09-12T01:18:20;95912.25;;;14.85;78.53
6218;BME280;3142;48.206;11.550;2022-09-12T01:20:58;95904.81;;;14.82;78.19
6218;BME280;3142;48.206;11.550;2022-09-12T01:23:55;95905.59;;;14.82;78.69
6218;BME280;3142;48.206;11.550;2022-09-12T01:29:54;95903.25;;;14.74;78.42
6218;BME280;3142;48.206;11.550;2022-09-12T01:32:30;95896.59;;;14.72;78.05
6218;BME280;3142;48.206;11.550;2022-09-12T01:35:05;95902.31;;;14.69;78.17
6218;BME280;3142;48.206;11.550;2022-09-12T01:37:38;95893.44;;;14.63;78.28
6218;BME280;3142;48.206;11.550;2022-09-12T01:40:12;95899.75;;;14.62;78.11
6218;BME280;3142;48.206;11.550;2022-09-12T01:42:48;95896.31;;;14.62;78.25
6218;BME280;3142;48.206;11.550;2022-09-12T01:45:23;95896.53;;;14.60;78.64
6218;BME280;3142;48.206;11.550;2022-09-12T01:47:59;95891.13;;;14.55;78.13
6218;BME280;3142;48.206;11.550;2022-09-12T01:50:29;95891.50;;;14.59;78.24
6218;BME280;3142;48.206;11.550;2022-09-12T01:52:59;95891.94;;;14.56;77.60
6218;BME280;3142;48.206;11.550;2022-09-12T01:55:29;95885.66;;;14.57;78.03
6218;BME280;3142;48.206;11.550;2022-09-12T01:58:03;95885.28;;;14.53;77.65
6218;BME280;3142;48.206;11.550;2022-09-12T02:00:32;95880.59;;;14.55;77.78
6218;BME280;3142;48.206;11.550;2022-09-12T02:03:06;95877.81;;;14.50;77.94
6218;BME280;3142;48.206;11.550;2022-09-12T02:05:36;95871.50;;;14.51;77.59
6218;BME280;3142;48.206;11.550;2022-09-12T02:08:06;95869.09;;;14.49;77.99
6218;BME280;3142;48.206;11.550;2022-09-12T02:10:40;95864.06;;;14.48;77.37
6218;BME280;3142;48.206;11.550;2022-09-12T02:13:13;95866.16;;;14.39;77.85
6218;BME280;3142;48.206;11.550;2022-09-12T02:15:44;95864.97;;;14.35;78.44
6218;BME280;3142;48.206;11.550;2022-09-12T02:18:15;95863.38;;;14.34;78.53
6218;BME280;3142;48.206;11.550;2022-09-12T02:20:45;95854.63;;;14.40;77.65
6218;BME280;3142;48.206;11.550;2022-09-12T02:23:16;95855.63;;;14.39;77.38
6218;BME280;3142;48.206;11.550;2022-09-12T02:25:48;95856.50;;;14.33;77.93
6218;BME280;3142;48.206;11.550;2022-09-12T02:28:18;95851.69;;;14.30;77.55
6218;BME280;3142;48.206;11.550;2022-09-12T02:30:51;95849.19;;;14.35;78.29
6218;BME280;3142;48.206;11.550;2022-09-12T02:33:26;95849.41;;;14.34;77.96
6218;BME280;3142;48.206;11.550;2022-09-12T02:35:59;95847.56;;;14.34;77.42
6218;BME280;3142;48.206;11.550;2022-09-12T02:38:31;95853.06;;;14.33;78.00
6218;BME280;3142;48.206;11.550;2022-09-12T02:40:58;95846.41;;;14.30;78.29
6218;BME280;3142;48.206;11.550;2022-09-12T02:43:25;95848.06;;;14.24;78.04
6218;BME280;3142;48.206;11.550;2022-09-12T02:45:52;95847.28;;;14.24;77.63
6218;BME280;3142;48.206;11.550;2022-09-12T02:48:21;95843.84;;;14.23;77.74
6218;BME280;3142;48.206;11.550;2022-09-12T02:50:50;95845.88;;;14.21;78.51
6218;BME280;3142;48.206;11.550;2022-09-12T02:53:18;95843.25;;;14.21;77.06
6218;BME280;3142;48.206;11.550;2022-09-12T02:55:45;95853.19;;;14.19;77.62
6218;BME280;3142;48.206;11.550;2022-09-12T02:58:15;95849.41;;;14.15;77.84
6218;BME280;3142;48.206;11.550;2022-09-12T03:00:46;95846.41;;;14.12;77.81
6218;BME280;3142;48.206;11.550;2022-09-12T03:03:25;95847.84;;;14.08;77.53
6218;BME280;3142;48.206;11.550;2022-09-12T03:06:01;95855.59;;;14.03;78.45
6218;BME280;3142;48.206;11.550;2022-09-12T03:08:46;95852.00;;;13.97;78.18
6218;BME280;3142;48.206;11.550;2022-09-12T03:11:40;95848.78;;;13.95;78.47
6218;BME280;3142;48.206;11.550;2022-09-12T03:14:21;95847.63;;;13.91;77.65
6218;BME280;3142;48.206;11.550;2022-09-12T03:16:56;95840.16;;;13.88;79.02
6218;BME280;3142;48.206;11.550;2022-09-12T03:19:29;95833.78;;;13.77;78.34
6218;BME280;3142;48.206;11.550;2022-09-12T03:22:08;95838.81;;;13.79;78.76
6218;BME280;3142;48.206;11.550;2022-09-12T03:24:44;95835.16;;;13.80;79.21
6218;BME280;3142;48.206;11.550;2022-09-12T03:27:16;95842.84;;;13.81;78.32
6218;BME280;3142;48.206;11.550;2022-09-12T03:29:45;95839.19;;;13.82;77.74
6218;BME280;3142;48.206;11.550;2022-09-12T03:32:13;95834.09;;;13.87;78.64
6218;BME280;3142;48.206;11.550;2022-09-12T03:34:39;95841.19;;;13.87;78.34
6218;BME280;3142;48.206;11.550;2022-09-12T03:37:07;95831.47;;;13.87;78.24
6218;BME280;3142;48.206;11.550;2022-09-12T03:39:33;95843.59;;;13.88;77.76
6218;BME280;3142;48.206;11.550;2022-09-12T03:42:00;95834.94;;;13.81;77.54
6218;BME280;3142;48.206;11.550;2022-09-12T03:44:26;95838.81;;;13.79;77.51
6218;BME280;3142;48.206;11.550;2022-09-12T03:46:53;95844.66;;;13.81;77.60
6218;BME280;3142;48.206;11.550;2022-09-12T03:49:19;95843.84;;;13.80;77.81
6218;BME280;3142;48.206;11.550;2022-09-12T03:51:46;95839.25;;;13.76;77.78
6218;BME280;3142;48.206;11.550;2022-09-12T03:54:13;95837.09;;;13.66;77.13
6218;BME280;3142;48.206;11.550;2022-09-12T03:56:40;95836.38;;;13.59;77.36
6218;BME280;3142;48.206;11.550;2022-09-12T03:59:06;95835.78;;;13.57;78.00
6218;BME280;3142;48.206;11.550;2022-09-12T04:01:33;95843.81;;;13.62;77.95
6218;BME280;3142;48.206;11.550;2022-09-12T04:04:01;95844.03;;;13.60;77.25
6218;BME280;3142;48.206;11.550;2022-09-12T04:06:28;95844.63;;;13.62;77.16
6218;BME280;3142;48.206;11.550;2022-09-12T04:08:55;95835.78;;;13.57;77.99
6218;BME280;3142;48.206;11.550;2022-09-12T04:11:23;95846.19;;;13.45;77.66
6218;BME280;3142;48.206;11.550;2022-09-12T04:13:49;95844.94;;;13.48;78.19
6218;BME280;3142;48.206;11.550;2022-09-12T04:16:16;95843.97;;;13.42;78.12
6218;BME280;3142;48.206;11.550;2022-09-12T04:18:42;95836.16;;;13.29;79.19
6218;BME280;3142;48.206;11.550;2022-09-12T04:21:10;95841.69;;;13.21;78.34
6218;BME280;3142;48.206;11.550;2022-09-12T04:23:37;95844.31;;;13.21;78.87
6218;BME280;3142;48.206;11.550;2022-09-12T04:26:04;95847.34;;;13.18;77.89
6218;BME280;3142;48.206;11.550;2022-09-12T04:28:34;95842.06;;;13.24;77.96
6218;BME280;3142;48.206;11.550;2022-09-12T04:31:02;95851.09;;;13.35;77.62
6218;BME280;3142;48.206;11.550;2022-09-12T04:33:29;95840.75;;;13.40;77.05
6218;BME280;3142;48.206;11.550;2022-09-12T04:35:55;95846.78;;;13.47;77.73
6218;BME280;3142;48.206;11.550;2022-09-12T04:38:21;95846.78;;;13.47;77.43
6218;BME280;3142;48.206;11.550;2022-09-12T04:40:48;95844.94;;;13.48;76.01
6218;BME280;3142;48.206;11.550;2022-09-12T04:43:15;95841.16;;;13.44;76.44
6218;BME280;3142;48.206;11.550;2022-09-12T04:45:43;95838.34;;;13.39;77.35
6218;BME280;3142;48.206;11.550;2022-09-12T04:48:09;95840.59;;;13.35;77.70
6218;BME280;3142;48.206;11.550;2022-09-12T04:50:35;95842.19;;;13.36;77.21
6218;BME280;3142;48.206;11.550;2022-09-12T04:53:02;95843.59;;;13.39;76.70
6218;BME280;3142;48.206;11.550;2022-09-12T04:55:28;95849.84;;;13.44;76.04
6218;BME280;3142;48.206;11.550;2022-09-12T04:57:55;95843.00;;;13.37;76.39
6218;BME280;3142;48.206;11.550;2022-09-12T05:00:21;95844.03;;;13.36;76.51
6218;BME280;3142;48.206;11.550;2022-09-12T05:02:50;95847.66;;;13.34;76.64
6218;BME280;3142;48.206;11.550;2022-09-12T05:05:16;95853.97;;;13.27;75.75
6218;BME280;3142;48.206;11.550;2022-09-12T05:07:43;95848.72;;;13.27;76.91
6218;BME280;3142;48.206;11.550;2022-09-12T05:10:09;95852.94;;;13.28;75.61
6218;BME280;3142;48.206;11.550;2022-09-12T05:12:37;95850.16;;;13.29;76.93
6218;BME280;3142;48.206;11.550;2022-09-12T05:15:04;95844.88;;;13.29;76.72
6218;BME280;3142;48.206;11.550;2022-09-12T05:17:31;95849.50;;;13.34;76.11
6218;BME280;3142;48.206;11.550;2022-09-12T05:19:58;95851.31;;;13.33;76.85
6218;BME280;3142;48.206;11.550;2022-09-12T05:22:25;95851.75;;;13.30;76.32
6218;BME280;3142;48.206;11.550;2022-09-12T05:24:52;95853.28;;;13.38;77.15
6218;BME280;3142;48.206;11.550;2022-09-12T05:27:18;95857.75;;;13.38;77.47
6218;BME280;3142;48.206;11.550;2022-09-12T05:29:45;95858.19;;;13.34;76.70
6218;BME280;3142;48.206;11.550;2022-09-12T05:32:11;95863.00;;;13.38;76.86
6218;BME280;3142;48.206;11.550;2022-09-12T05:34:38;95857.09;;;13.42;77.69
6218;BME280;3142;48.206;11.550;2022-09-12T05:37:06;95866.22;;;13.40;77.45
6218;BME280;3142;48.206;11.550;2022-09-12T05:39:33;95859.53;;;13.44;78.26
6218;BME280;3142;48.206;11.550;2022-09-12T05:41:59;95869.84;;;13.45;77.57
6218;BME280;3142;48.206;11.550;2022-09-12T05:44:26;95871.44;;;13.46;77.60
6218;BME280;3142;48.206;11.550;2022-09-12T05:46:53;95873.44;;;13.51;78.09
6218;BME280;3142;48.206;11.550;2022-09-12T05:49:19;95871.59;;;13.51;77.21
6218;BME280;3142;48.206;11.550;2022-09-12T05:51:46;95873.22;;;13.52;77.55
6218;BME280;3142;48.206;11.550;2022-09-12T05:54:16;95876.44;;;13.54;77.98
6218;BME280;3142;48.206;11.550;2022-09-12T05:56:45;95880.03;;;13.60;77.90
6218;BME280;3142;48.206;11.550;2022-09-12T05:59:15;95874.78;;;13.60;78.07
6218;BME280;3142;48.206;11.550;2022-09-12T06:01:42;95871.50;;;13.64;78.73
6218;BME280;3142;48.206;11.550;2022-09-12T06:04:09;95872.47;;;13.70;78.21
6218;BME280;3142;48.206;11.550;2022-09-12T06:06:37;95870.44;;;13.72;77.96
6218;BME280;3142;48.206;11.550;2022-09-12T06:09:05;95872.19;;;13.78;79.12
6218;BME280;3142;48.206;11.550;2022-09-12T06:11:35;95860.97;;;13.89;79.12
6218;BME280;3142;48.206;11.550;2022-09-12T06:14:02;95861.94;;;13.95;78.16
6218;BME280;3142;48.206;11.550;2022-09-12T06:16:30;95871.16;;;14.04;78.10
6218;BME280;3142;48.206;11.550;2022-09-12T06:18:59;95871.69;;;14.13;78.62
6218;BME280;3142;48.206;11.550;2022-09-12T06:21:26;95871.19;;;14.22;79.26
6218;BME280;3142;48.206;11.550;2022-09-12T06:23:55;95875.16;;;14.32;78.63
6218;BME280;3142;48.206;11.550;2022-09-12T06:26:23;95865.34;;;14.39;78.56
6218;BME280;3142;48.206;11.550;2022-09-12T06:28:52;95862.81;;;14.50;78.08
6218;BME280;3142;48.206;11.550;2022-09-12T06:31:20;95862.25;;;14.67;77.74
6218;BME280;3142;48.206;11.550;2022-09-12T06:33:49;95862.56;;;14.89;77.34
6218;BME280;3142;48.206;11.550;2022-09-12T06:36:18;95873.78;;;15.14;76.14
6218;BME280;3142;48.206;11.550;2022-09-12T06:38:45;95875.69;;;15.49;75.65
6218;BME280;3142;48.206;11.550;2022-09-12T06:41:13;95871.25;;;15.91;74.29
6218;BME280;3142;48.206;11.550;2022-09-12T06:43:40;95857.22;;;16.37;72.41
6218;BME280;3142;48.206;11.550;2022-09-12T06:46:08;95862.88;;;16.81;70.91
6218;BME280;3142;48.206;11.550;2022-09-12T06:48:37;95866.38;;;17.27;69.30
6218;BME280;3142;48.206;11.550;2022-09-12T06:51:05;95854.25;;;17.59;68.39
6218;BME280;3142;48.206;11.550;2022-09-12T06:53:33;95857.88;;;18.03;65.98
6218;BME280;3142;48.206;11.550;2022-09-12T06:56:03;95864.91;;;18.31;64.91
6218;BME280;3142;48.206;11.550;2022-09-12T06:58:30;95860.34;;;18.66;62.82
6218;BME280;3142;48.206;11.550;2022-09-12T07:01:00;95865.13;;;18.90;62.48
6218;BME280;3142;48.206;11.550;2022-09-12T07:03:29;95865.16;;;19.17;62.02
6218;BME280;3142;48.206;11.550;2022-09-12T07:05:55;95867.44;;;19.58;60.95
6218;BME280;3142;48.206;11.550;2022-09-12T07:08:22;95865.75;;;20.10;59.61
6218;BME280;3142;48.206;11.550;2022-09-12T07:10:48;95859.53;;;20.84;57.48
6218;BME280;3142;48.206;11.550;2022-09-12T07:13:15;95859.97;;;21.49;56.35
6218;BME280;3142;48.206;11.550;2022-09-12T07:15:41;95860.00;;;22.20;55.10
6218;BME280;3142;48.206;11.550;2022-09-12T07:18:09;95856.94;;;22.77;53.93
6218;BME280;3142;48.206;11.550;2022-09-12T07:20:37;95849.22;;;23.30;53.04
6218;BME280;3142;48.206;11.550;2022-09-12T07:23:03;95857.25;;;23.75;51.59
6218;BME280;3142;48.206;11.550;2022-09-12T07:25:30;95860.81;;;24.23;49.46
6218;BME280;3142;48.206;11.550;2022-09-12T07:27:56;95866.13;;;24.57;49.14
6218;BME280;3142;48.206;11.550;2022-09-12T07:30:23;95864.06;;;24.97;48.05
6218;BME280;3142;48.206;11.550;2022-09-12T07:32:51;95857.75;;;25.30;47.17
6218;BME280;3142;48.206;11.550;2022-09-12T07:35:18;95862.66;;;25.61;46.79
6218;BME280;3142;48.206;11.550;2022-09-12T07:37:46;95863.47;;;25.61;45.70
6218;BME280;3142;48.206;11.550;2022-09-12T07:40:13;95869.84;;;25.84;44.71
6218;BME280;3142;48.206;11.550;2022-09-12T07:42:39;95877.53;;;25.91;44.32
6218;BME280;3142;48.206;11.550;2022-09-12T07:45:06;95875.31;;;26.12;43.98
6218;BME280;3142;48.206;11.550;2022-09-12T07:47:33;95878.09;;;26.39;44.31
6218;BME280;3142;48.206;11.550;2022-09-12T07:49:59;95875.13;;;26.54;44.38
6218;BME280;3142;48.206;11.550;2022-09-12T07:52:26;95873.53;;;26.67;43.87
6218;BME280;3142;48.206;11.550;2022-09-12T07:54:54;95870.06;;;26.67;43.72
6218;BME280;3142;48.206;11.550;2022-09-12T07:57:20;95880.31;;;26.92;43.19
6218;BME280;3142;48.206;11.550;2022-09-12T07:59:47;95871.75;;;26.90;42.07
6218;BME280;3142;48.206;11.550;2022-09-12T08:02:13;95870.19;;;26.75;41.96
6218;BME280;3142;48.206;11.550;2022-09-12T08:04:39;95872.63;;;26.85;42.28
6218;BME280;3142;48.206;11.550;2022-09-12T08:07:07;95875.75;;;26.93;42.41
6218;BME280;3142;48.206;11.550;2022-09-12T08:09:33;95871.66;;;26.95;42.20
6218;BME280;3142;48.206;11.550;2022-09-12T08:12:01;95879.06;;;27.03;41.63
6218;BME280;3142;48.206;11.550;2022-09-12T08:14:27;95883.19;;;27.23;42.18
6218;BME280;3142;48.206;11.550;2022-09-12T08:16:54;95886.94;;;27.36;42.86
6218;BME280;3142;48.206;11.550;2022-09-12T08:19:20;95884.75;;;27.38;41.77
6218;BME280;3142;48.206;11.550;2022-09-12T08:21:48;95884.97;;;27.41;41.40
6218;BME280;3142;48.206;11.550;2022-09-12T08:24:14;95882.81;;;27.52;41.94
6218;BME280;3142;48.206;11.550;2022-09-12T08:26:41;95882.91;;;27.61;42.12
6218;BME280;3142;48.206;11.550;2022-09-12T08:29:08;95884.56;;;27.84;40.39
6218;BME280;3142;48.206;11.550;2022-09-12T08:31:35;95874.94;;;27.92;40.34
6218;BME280;3142;48.206;11.550;2022-09-12T08:34:02;95877.53;;;27.97;39.49
6218;BME280;3142;48.206;11.550;2022-09-12T08:36:29;95885.22;;;27.90;40.08
6218;BME280;3142;48.206;11.550;2022-09-12T08:38:58;95878.69;;;28.04;38.83
6218;BME280;3142;48.206;11.550;2022-09-12T08:41:28;95873.47;;;28.08;38.51
6218;BME280;3142;48.206;11.550;2022-09-12T08:44:10;95883.44;;;28.08;37.77
6218;BME280;3142;48.206;11.550;2022-09-12T08:46:49;95871.81;;;28.21;38.10
6218;BME280;3142;48.206;11.550;2022-09-12T08:49:24;95882.53;;;28.35;37.96
6218;BME280;3142;48.206;11.550;2022-09-12T08:51:54;95887.34;;;28.46;37.72
6218;BME280;3142;48.206;11.550;2022-09-12T08:54:25;95882.03;;;28.55;37.60
6218;BME280;3142;48.206;11.550;2022-09-12T08:56:56;95887.56;;;28.58;36.90
6218;BME280;3142;48.206;11.550;2022-09-12T08:59:26;95879.53;;;28.67;36.89
6218;BME280;3142;48.206;11.550;2022-09-12T09:01:55;95885.25;;;28.74;36.96
6218;BME280;3142;48.206;11.550;2022-09-12T09:04:41;95870.91;;;28.87;37.18
6218;BME280;3142;48.206;11.550;2022-09-12T09:07:21;95876.06;;;29.06;37.09
6218;BME280;3142;48.206;11.550;2022-09-12T09:10:00;95879.44;;;29.20;36.20
6218;BME280;3142;48.206;11.550;2022-09-12T09:12:39;95870.03;;;29.18;35.60
6218;BME280;3142;48.206;11.550;2022-09-12T09:15:26;95874.22;;;28.84;35.50
6218;BME280;3142;48.206;11.550;2022-09-12T09:18:01;95875.78;;;28.85;35.91
6218;BME280;3142;48.206;11.550;2022-09-12T09:20:34;95864.03;;;29.12;35.83
6218;BME280;3142;48.206;11.550;2022-09-12T09:23:07;95866.59;;;29.35;35.00
6218;BME280;3142;48.206;11.550;2022-09-12T09:25:46;95863.34;;;28.98;35.74
6218;BME280;3142;48.206;11.550;2022-09-12T09:28:18;95856.91;;;29.25;35.91
6218;BME280;3142;48.206;11.550;2022-09-12T09:30:47;95859.16;;;29.40;35.84
6218;BME280;3142;48.206;11.550;2022-09-12T09:33:20;95854.84;;;29.22;34.73
6218;BME280;3142;48.206;11.550;2022-09-12T09:35:52;95852.31;;;29.43;35.07
6218;BME280;3142;48.206;11.550;2022-09-12T09:38:23;95853.88;;;29.27;34.24
6218;BME280;3142;48.206;11.550;2022-09-12T09:41:06;95861.94;;;29.09;34.41
6218;BME280;3142;48.206;11.550;2022-09-12T09:43:36;95860.69;;;29.07;35.20
6218;BME280;3142;48.206;11.550;2022-09-12T09:46:05;95846.88;;;29.17;35.45
6218;BME280;3142;48.206;11.550;2022-09-12T09:48:33;95845.19;;;29.21;36.27
6218;BME280;3142;48.206;11.550;2022-09-12T09:51:02;95843.63;;;29.55;35.40
6218;BME280;3142;48.206;11.550;2022-09-12T09:53:34;95854.28;;;29.77;34.71
6218;BME280;3142;48.206;11.550;2022-09-12T09:56:07;95842.34;;;29.95;34.92
6218;BME280;3142;48.206;11.550;2022-09-12T09:58:35;95847.41;;;30.23;34.18
6218;BME280;3142;48.206;11.550;2022-09-12T10:01:04;95837.84;;;30.34;34.36
6218;BME280;3142;48.206;11.550;2022-09-12T10:03:37;95845.41;;;30.49;34.38
6218;BME280;3142;48.206;11.550;2022-09-12T10:06:07;95844.59;;;30.57;33.66
6218;BME280;3142;48.206;11.550;2022-09-12T10:08:35;95844.63;;;30.40;32.07
6218;BME280;3142;48.206;11.550;2022-09-12T10:11:04;95841.59;;;30.42;33.03
6218;BME280;3142;48.206;11.550;2022-09-12T10:13:37;95837.13;;;30.63;32.39
6218;BME280;3142;48.206;11.550;2022-09-12T10:16:17;95841.31;;;30.81;33.57
6218;BME280;3142;48.206;11.550;2022-09-12T10:18:45;95836.09;;;31.06;33.55
6218;BME280;3142;48.206;11.550;2022-09-12T10:21:19;95839.88;;;31.13;33.12
6218;BME280;3142;48.206;11.550;2022-09-12T10:23:51;95829.50;;;31.24;33.53
6218;BME280;3142;48.206;11.550;2022-09-12T10:26:19;95824.81;;;31.33;32.85
6218;BME280;3142;48.206;11.550;2022-09-12T10:28:48;95825.63;;;31.04;31.87
6218;BME280;3142;48.206;11.550;2022-09-12T10:31:23;95827.94;;;31.14;32.49
6218;BME280;3142;48.206;11.550;2022-09-12T10:33:54;95824.28;;;31.19;33.63
6218;BME280;3142;48.206;11.550;2022-09-12T10:36:22;95824.56;;;31.26;33.64
6218;BME280;3142;48.206;11.550;2022-09-12T10:38:50;95818.41;;;31.59;33.05
6218;BME280;3142;48.206;11.550;2022-09-12T10:41:18;95816.97;;;31.61;32.14
6218;BME280;3142;48.206;11.550;2022-09-12T10:43:46;95822.25;;;31.58;32.50
6218;BME280;3142;48.206;11.550;2022-09-12T10:46:32;95824.81;;;31.33;32.45
6218;BME280;3142;48.206;11.550;2022-09-12T10:51:55;95820.44;;;30.90;33.20
6218;BME280;3142;48.206;11.550;2022-09-12T10:54:25;95821.56;;;31.19;32.53
6218;BME280;3142;48.206;11.550;2022-09-12T10:57:31;95818.97;;;31.02;31.77
6218;BME280;3142;48.206;11.550;2022-09-12T11:00:10;95820.13;;;30.92;32.38
6218;BME280;3142;48.206;11.550;2022-09-12T11:02:50;95819.38;;;30.45;31.63
6218;BME280;3142;48.206;11.550;2022-09-12T11:05:37;95813.59;;;30.93;31.87
6218;BME280;3142;48.206;11.550;2022-09-12T11:08:21;95809.72;;;31.32;31.76
6218;BME280;3142;48.206;11.550;2022-09-12T11:10:58;95811.56;;;31.19;31.21
6218;BME280;3142;48.206;11.550;2022-09-12T11:13:42;95810.97;;;30.84;31.72
6218;BME280;3142;48.206;11.550;2022-09-12T11:16:20;95813.94;;;31.42;31.96
6218;BME280;3142;48.206;11.550;2022-09-12T11:19:09;95805.94;;;31.87;31.44
6218;BME280;3142;48.206;11.550;2022-09-12T11:21:51;95802.13;;;32.00;31.48
6218;BME280;3142;48.206;11.550;2022-09-12T11:24:32;95808.16;;;32.18;31.54
6218;BME280;3142;48.206;11.550;2022-09-12T11:27:21;95795.84;;;32.21;31.72
6218;BME280;3142;48.206;11.550;2022-09-12T11:29:57;95800.59;;;32.11;30.25
6218;BME280;3142;48.206;11.550;2022-09-12T11:32:44;95795.50;;;32.10;29.55
6218;BME280;3142;48.206;11.550;2022-09-12T11:35:18;95791.22;;;32.09;29.75
6218;BME280;3142;48.206;11.550;2022-09-12T11:37:59;95794.75;;;31.89;30.17
6218;BME280;3142;48.206;11.550;2022-09-12T11:40:36;95789.31;;;31.35;30.63
6218;BME280;3142;48.206;11.550;2022-09-12T11:43:08;95791.19;;;31.43;30.48
6218;BME280;3142;48.206;11.550;2022-09-12T11:45:40;95785.31;;;31.41;30.96
6218;BME280;3142;48.206;11.550;2022-09-12T11:48:12;95788.28;;;31.27;31.79
6218;BME280;3142;48.206;11.550;2022-09-12T11:50:42;95780.53;;;31.38;30.28
6218;BME280;3142;48.206;11.550;2022-09-12T11:53:14;95787.34;;;31.23;31.54
6218;BME280;3142;48.206;11.550;2022-09-12T11:55:53;95779.31;;;30.85;31.54
6218;BME280;3142;48.206;11.550;2022-09-12T11:58:23;95776.63;;;30.47;32.12
6218;BME280;3142;48.206;11.550;2022-09-12T12:00:54;95783.75;;;29.87;32.53
6218;BME280;3142;48.206;11.550;2022-09-12T12:03:26;95774.44;;;29.24;32.90
6218;BME280;3142;48.206;11.550;2022-09-12T12:06:00;95775.38;;;29.02;32.92
6218;BME280;3142;48.206;11.550;2022-09-12T12:08:29;95784.72;;;29.05;33.69
6218;BME280;3142;48.206;11.550;2022-09-12T12:10:57;95780.44;;;29.04;33.57
6218;BME280;3142;48.206;11.550;2022-09-12T12:13:27;95773.78;;;29.01;33.48
6218;BME280;3142;48.206;11.550;2022-09-12T12:16:01;95772.03;;;29.05;33.63
6218;BME280;3142;48.206;11.550;2022-09-12T12:18:30;95776.16;;;28.94;34.01
6218;BME280;3142;48.206;11.550;2022-09-12T12:24:12;95768.63;;;28.25;34.89
6218;BME280;3142;48.206;11.550;2022-09-12T12:26:44;95771.38;;;28.03;34.30
6218;BME280;3142;48.206;11.550;2022-09-12T12:29:40;95769.94;;;27.74;34.96
6218;BME280;3142;48.206;11.550;2022-09-12T12:32:23;95767.38;;;27.69;35.14
6218;BME280;3142;48.206;11.550;2022-09-12T12:35:00;95763.69;;;27.43;35.78
6218;BME280;3142;48.206;11.550;2022-09-12T12:37:54;95766.69;;;27.64;35.22
6218;BME280;3142;48.206;11.550;2022-09-12T12:40:28;95757.22;;;27.66;35.68
6218;BME280;3142;48.206;11.550;2022-09-12T12:42:58;95757.22;;;27.89;35.77
6218;BME280;3142;48.206;11.550;2022-09-12T12:48:49;95758.69;;;27.72;35.88
6218;BME280;3142;48.206;11.550;2022-09-12T12:51:36;95748.22;;;27.49;36.24
6218;BME280;3142;48.206;11.550;2022-09-12T12:54:08;95740.97;;;27.49;36.19
6218;BME280;3142;48.206;11.550;2022-09-12T12:57:02;95744.44;;;27.50;35.03
6218;BME280;3142;48.206;11.550;2022-09-12T12:59:30;95745.31;;;27.59;35.03
6218;BME280;3142;48.206;11.550;2022-09-12T13:01:57;95736.03;;;27.42;35.04
6218;BME280;3142;48.206;11.550;2022-09-12T13:04:28;95739.44;;;27.34;35.19
6218;BME280;3142;48.206;11.550;2022-09-12T13:06:59;95734.91;;;27.21;35.37
6218;BME280;3142;48.206;11.550;2022-09-12T13:09:30;95737.72;;;27.16;35.86
6218;BME280;3142;48.206;11.550;2022-09-12T13:12:01;95732.72;;;27.23;35.39
6218;BME280;3142;48.206;11.550;2022-09-12T13:14:47;95726.28;;;26.97;35.46
6218;BME280;3142;48.206;11.550;2022-09-12T13:17:18;95725.09;;;26.67;36.00
6218;BME280;3142;48.206;11.550;2022-09-12T13:19:47;95723.69;;;26.69;34.99
6218;BME280;3142;48.206;11.550;2022-09-12T13:22:14;95710.50;;;26.59;34.36
6218;BME280;3142;48.206;11.550;2022-09-12T13:24:42;95712.34;;;26.58;34.52
6218;BME280;3142;48.206;11.550;2022-09-12T13:27:18;95705.63;;;26.61;35.28
6218;BME280;3142;48.206;11.550;2022-09-12T13:29:46;95694.16;;;26.69;35.19
6218;BME280;3142;48.206;11.550;2022-09-12T13:32:13;95698.69;;;26.82;35.03
6218;BME280;3142;48.206;11.550;2022-09-12T13:34:50;95698.00;;;26.77;35.90
6218;BME280;3142;48.206;11.550;2022-09-12T13:37:39;95695.19;;;26.60;36.31
6218;BME280;3142;48.206;11.550;2022-09-12T13:40:24;95686.56;;;26.71;37.15
6218;BME280;3142;48.206;11.550;2022-09-12T13:43:11;95685.47;;;26.72;36.87